createdAt,value
2018-12-23T00:04:00.305Z,100378.30
2018-12-23T00:09:04.646Z,100373.02
2018-12-23T00:14:08.169Z,100382.59
2018-12-23T00:19:11.477Z,100400.25
2018-12-23T00:24:14.869Z,100404.88
2018-12-23T00:29:18.151Z,100410.48
2018-12-23T00:34:21.531Z,100418.23
2018-12-23T00:39:25.332Z,100428.42
2018-12-23T00:44:28.781Z,100442.14
2018-12-23T00:49:32.030Z,100452.52
2018-12-23T00:54:35.315Z,100470.82
2018-12-23T00:59:38.583Z,100482.19
2018-12-23T01:04:41.860Z,100479.98
2018-12-23T01:09:45.092Z,100482.89
2018-12-23T01:14:48.324Z,100497.54
2018-12-23T01:19:51.573Z,100502.82
2018-12-23T01:24:54.810Z,100517.21
2018-12-23T01:29:57.998Z,100529.02
2018-12-23T01:35:01.163Z,100525.17
2018-12-23T01:40:05.552Z,100541.87
2018-12-23T01:45:08.929Z,100542.75
2018-12-23T01:50:12.277Z,100541.09
2018-12-23T01:55:15.613Z,100559.42
2018-12-23T02:00:19.114Z,100568.23
2018-12-23T02:05:22.301Z,100567.38
2018-12-23T02:10:25.555Z,100567.25
2018-12-23T02:15:28.864Z,100574.34
2018-12-23T02:20:32.017Z,100574.39
2018-12-23T02:25:35.436Z,100573.93
2018-12-23T02:30:38.686Z,100571.53
2018-12-23T02:35:41.902Z,100573.88
2018-12-23T02:40:45.179Z,100582.42
2018-12-23T02:45:48.565Z,100573.02
2018-12-23T02:50:52.008Z,100571.00
2018-12-23T02:55:55.333Z,100568.59
2018-12-23T03:00:58.547Z,100565.25
2018-12-23T03:06:06.157Z,100567.95
2018-12-23T03:11:06.966Z,100561.97
2018-12-23T03:16:10.226Z,100571.66
2018-12-23T03:21:13.518Z,100567.21
2018-12-23T03:26:16.970Z,100564.61
2018-12-23T03:31:20.141Z,100563.70
2018-12-23T03:36:23.316Z,100565.85
2018-12-23T03:41:26.734Z,100567.67
2018-12-23T03:46:30.113Z,100558.25
2018-12-23T03:51:33.486Z,100553.76
2018-12-23T03:56:36.826Z,100558.34
2018-12-23T04:01:40.041Z,100562.08
2018-12-23T04:06:43.215Z,100561.22
2018-12-23T04:11:46.454Z,100551.45
2018-12-23T04:16:49.884Z,100553.99
2018-12-23T04:21:53.066Z,100554.36
2018-12-23T04:26:56.232Z,100557.12
2018-12-23T04:31:59.468Z,100551.70
2018-12-23T04:37:02.825Z,100548.34
2018-12-23T04:42:06.105Z,100553.23
2018-12-23T04:47:09.334Z,100543.77
2018-12-23T04:52:12.503Z,100548.69
2018-12-23T04:57:15.705Z,100555.25
2018-12-23T05:02:18.889Z,100552.14
2018-12-23T05:07:22.168Z,100547.69
2018-12-23T05:12:25.349Z,100543.00
2018-12-23T05:17:28.817Z,100554.83
2018-12-23T05:22:32.321Z,100565.99
2018-12-23T05:27:35.542Z,100569.35
2018-12-23T05:32:38.761Z,100576.06
2018-12-23T05:37:41.977Z,100578.86
2018-12-23T05:42:45.155Z,100580.88
2018-12-23T05:47:48.416Z,100584.19
2018-12-23T05:52:51.594Z,100576.01
2018-12-23T05:57:55.321Z,100575.63
2018-12-23T06:02:58.504Z,100584.70
2018-12-23T06:08:01.745Z,100584.87
2018-12-23T06:13:05.093Z,100580.17
2018-12-23T06:18:08.257Z,100585.91
2018-12-23T06:23:11.489Z,100585.84
2018-12-23T06:28:14.697Z,100584.12
2018-12-23T06:33:17.873Z,100588.53
2018-12-23T06:38:21.269Z,100591.05
2018-12-23T06:43:24.524Z,100586.09
2018-12-23T06:48:27.813Z,100583.58
2018-12-23T06:53:31.225Z,100591.38
2018-12-23T06:58:34.521Z,100589.39
2018-12-23T07:03:37.775Z,100585.28
2018-12-23T07:08:41.116Z,100596.45
2018-12-23T07:13:44.489Z,100596.98
2018-12-23T07:18:47.836Z,100604.75
2018-12-23T07:23:51.189Z,100605.56
2018-12-23T07:28:54.500Z,100592.41
2018-12-23T07:33:57.661Z,100603.09
2018-12-23T07:39:01.045Z,100606.66
2018-12-23T07:44:04.479Z,100612.55
2018-12-23T07:49:07.777Z,100626.58
2018-12-23T07:54:11.143Z,100613.75
2018-12-23T07:59:14.502Z,100611.44
2018-12-23T08:04:17.799Z,100628.36
2018-12-23T08:09:21.115Z,100623.53
2018-12-23T08:14:24.464Z,100620.06
2018-12-23T08:19:27.689Z,100621.39
2018-12-23T08:24:30.846Z,100625.75
2018-12-23T08:29:34.077Z,100631.28
2018-12-23T08:34:37.244Z,100635.36
2018-12-23T08:39:40.466Z,100630.25
2018-12-23T08:44:43.621Z,100636.07
2018-12-23T08:49:46.791Z,100628.36
2018-12-23T08:54:49.934Z,100637.03
2018-12-23T08:59:53.109Z,100631.58
2018-12-23T09:04:56.337Z,100637.86
2018-12-23T09:09:59.508Z,100646.93
2018-12-23T09:15:02.800Z,100635.70
2018-12-23T09:20:06.157Z,100631.95
2018-12-23T09:25:09.477Z,100611.69
2018-12-23T09:30:12.645Z,100628.20
2018-12-23T09:35:15.955Z,100612.58
2018-12-23T09:40:19.352Z,100606.77
2018-12-23T09:45:22.558Z,100596.20
2018-12-23T09:50:26.482Z,100606.47
2018-12-23T09:55:29.756Z,100600.39
2018-12-23T10:00:32.993Z,100593.62
2018-12-23T10:05:36.314Z,100584.07
2018-12-23T10:10:39.672Z,100590.57
2018-12-23T10:15:43.044Z,100587.77
2018-12-23T10:20:46.261Z,100575.20
2018-12-23T10:25:52.734Z,100577.09
2018-12-23T10:30:56.072Z,100562.65
2018-12-23T10:35:59.292Z,100559.38
2018-12-23T10:41:02.649Z,100552.30
2018-12-23T10:46:05.862Z,100543.88
2018-12-23T10:51:09.119Z,100559.08
2018-12-23T10:56:12.344Z,100549.84
2018-12-23T11:01:15.510Z,100540.25
2018-12-23T11:06:18.764Z,100530.85
2018-12-23T11:11:21.936Z,100513.51
2018-12-23T11:16:25.166Z,100499.63
2018-12-23T11:21:28.551Z,100486.91
2018-12-23T11:26:31.752Z,100484.41
2018-12-23T11:31:34.976Z,100468.05
2018-12-23T11:36:38.226Z,100456.14
2018-12-23T11:41:41.459Z,100448.73
2018-12-23T11:46:44.753Z,100441.09
2018-12-23T11:51:48.013Z,100449.69
2018-12-23T11:56:51.281Z,100455.33
2018-12-23T12:01:54.509Z,100436.33
2018-12-23T12:06:57.713Z,100421.61
2018-12-23T12:12:00.865Z,100410.88
2018-12-23T12:17:04.140Z,100411.70
2018-12-23T12:22:07.364Z,100404.10
2018-12-23T12:27:10.505Z,100395.52
2018-12-23T12:32:13.757Z,100391.55
2018-12-23T12:37:16.931Z,100400.63
2018-12-23T12:42:20.099Z,100404.91
2018-12-23T12:47:23.281Z,100396.79
2018-12-23T12:52:26.627Z,100391.50
2018-12-23T12:57:29.900Z,100391.50
2018-12-23T13:02:33.071Z,100377.30
2018-12-23T13:07:36.274Z,100382.25
2018-12-23T13:12:39.466Z,100373.31
2018-12-23T13:17:42.648Z,100368.20
2018-12-23T13:22:47.071Z,100351.85
2018-12-23T13:27:50.282Z,100352.17
2018-12-23T13:32:53.538Z,100357.29
2018-12-23T13:37:57.164Z,100355.97
2018-12-23T13:43:15.238Z,100342.09
2018-12-23T13:49:31.280Z,100340.45
2018-12-23T13:55:51.715Z,100333.51
2018-12-23T14:01:32.267Z,100324.56
2018-12-23T14:07:17.040Z,100324.56
2018-12-23T14:12:21.410Z,100315.16
2018-12-23T14:17:27.723Z,100319.80
2018-12-23T14:22:31.846Z,100310.06
2018-12-23T14:27:36.044Z,100309.41
2018-12-23T14:32:40.346Z,100329.05
2018-12-23T14:44:15.877Z,100324.11
2018-12-23T14:49:20.028Z,100309.88
2018-12-23T14:54:25.926Z,100315.51
2018-12-23T14:59:30.202Z,100303.77
2018-12-23T15:04:34.374Z,100273.56
2018-12-23T15:09:38.650Z,100273.22
2018-12-23T15:14:42.804Z,100260.17
2018-12-23T15:19:46.983Z,100246.48
2018-12-23T15:24:51.152Z,100242.48
2018-12-23T15:29:55.274Z,100244.30
2018-12-23T15:34:59.398Z,100249.95
2018-12-23T15:40:03.680Z,100235.39
2018-12-23T15:45:07.906Z,100222.52
2018-12-23T15:50:12.069Z,100210.95
2018-12-23T15:55:14.891Z,100199.87
2018-12-23T16:00:19.126Z,100193.70
2018-12-23T16:05:23.273Z,100173.00
2018-12-23T16:10:27.431Z,100167.53
2018-12-23T16:15:31.570Z,100162.10
2018-12-23T16:20:36.679Z,100159.59
2018-12-23T16:25:40.898Z,100166.20
2018-12-23T16:30:45.032Z,100147.56
2018-12-23T16:35:49.163Z,100139.80
2018-12-23T16:40:53.301Z,100125.40
2018-12-23T16:45:57.472Z,100121.75
2018-12-23T16:51:01.620Z,100118.34
2018-12-23T16:56:05.790Z,100109.62
2018-12-23T17:01:10.031Z,100117.84
2018-12-23T17:06:14.215Z,100114.30
2018-12-23T17:11:18.455Z,100105.41
2018-12-23T17:16:22.622Z,100104.77
2018-12-23T17:21:26.789Z,100105.55
2018-12-23T17:26:30.943Z,100107.54
2018-12-23T17:31:35.119Z,100096.69
2018-12-23T17:36:39.375Z,100092.59
2018-12-23T17:41:43.580Z,100085.80
2018-12-23T17:46:47.870Z,100084.35
2018-12-23T17:51:52.041Z,100087.36
2018-12-23T17:56:56.249Z,100064.84
2018-12-23T18:02:03.017Z,100068.34
2018-12-23T18:07:07.233Z,100062.86
2018-12-23T18:12:11.416Z,100054.45
2018-12-23T18:17:15.614Z,100051.03
2018-12-23T18:22:20.465Z,100036.42
2018-12-23T18:27:24.771Z,100033.50
2018-12-23T18:32:29.055Z,100028.39
2018-12-23T18:37:33.194Z,100033.67
2018-12-23T18:42:37.339Z,100018.64
2018-12-23T18:47:41.578Z,100021.33
2018-12-23T18:52:45.755Z,100019.14
2018-12-23T18:57:50.395Z,100015.22
2018-12-23T19:02:56.982Z,100013.53
2018-12-23T19:08:10.008Z,100011.45
2018-12-23T19:13:59.537Z,100005.16
2018-12-23T19:19:46.383Z,99980.58
2018-12-23T19:25:40.517Z,99981.06
2018-12-23T19:31:03.636Z,99975.15
2018-12-23T19:36:46.141Z,99955.47
2018-12-23T19:42:40.780Z,99951.63
2018-12-23T19:48:40.505Z,99948.73
2018-12-23T19:54:24.821Z,99924.50
2018-12-23T20:00:05.559Z,99932.13
2018-12-23T20:06:05.373Z,99947.47
2018-12-23T20:12:02.781Z,99951.30
2018-12-23T20:17:50.270Z,99948.14
2018-12-23T20:23:20.687Z,99947.94
2018-12-23T20:29:05.866Z,99951.48
2018-12-23T20:34:54.744Z,99951.11
2018-12-23T20:41:07.934Z,99953.26
2018-12-23T20:46:40.909Z,99934.77
2018-12-23T20:52:50.612Z,99919.17
2018-12-23T20:58:45.232Z,99908.92
2018-12-23T21:04:22.898Z,99897.62
2018-12-23T21:10:32.996Z,99892.66
2018-12-23T21:16:15.900Z,99888.58
2018-12-23T21:21:55.968Z,99886.07
2018-12-23T21:27:56.214Z,99898.34
2018-12-23T21:33:36.599Z,99894.58
2018-12-23T21:39:38.005Z,99896.16
2018-12-23T21:45:13.709Z,99887.16
2018-12-23T21:50:33.533Z,99886.86
2018-12-23T21:56:30.219Z,99883.58
2018-12-23T22:02:10.527Z,99869.16
2018-12-23T22:08:02.058Z,99860.36
2018-12-23T22:13:27.565Z,99873.39
2018-12-23T22:18:34.239Z,99890.20
2018-12-23T22:23:38.458Z,99866.17
2018-12-23T22:28:42.624Z,99867.03
2018-12-23T22:33:46.818Z,99851.39
2018-12-23T22:38:51.001Z,99852.39
2018-12-23T22:43:55.263Z,99855.53
2018-12-23T22:48:59.473Z,99860.41
2018-12-23T22:54:03.669Z,99866.33
2018-12-23T22:59:08.229Z,99849.44
2018-12-23T23:04:12.540Z,99843.38
2018-12-23T23:09:16.837Z,99834.11
2018-12-23T23:14:23.012Z,99836.23
2018-12-23T23:19:30.165Z,99830.96
2018-12-23T23:24:39.001Z,99828.73
2018-12-23T23:29:43.358Z,99814.33
2018-12-23T23:34:56.490Z,99822.04
2018-12-23T23:40:02.148Z,99822.63
2018-12-23T23:45:06.590Z,99823.66
2018-12-23T23:50:10.921Z,99835.03
2018-12-23T23:55:15.158Z,99830.92
